Aviation Digital Data Service (ADDS)

Output produced by METARs form (0855 UTC 19 November 2018)
found at http://www.aviationweather.gov/metar/data/
 
ROIG 190800Z 02014KT 9999 SCT020 BKN038 BKN080 23/20 Q1016
TAF ROIG 190509Z 1906/2012 03016KT 9999 SCT020 BKN040